Flight Track Log - Related Links

Times and Time Zones

All times are in EDT time to prevent confusion due to time zone crossing. See the UAL582 flight status page for this flight to view local times or setup timezone preferences in your user account.

Time Position Orientation Groundspeed Altitude Reporting Facility
EDT Latitude Longitude Course Direction KTS MPH feet Rate Location/Type
Sun 05:28:39 PM 43.7000 -79.6167 270° West 130 150 1,900  Level Toronto Center
Sun 05:29:39 PM 43.7500 -79.5667 36° Northeast 210 242 4,000 2,400 Climbing Toronto Center
Sun 05:30:39 PM 43.8000 -79.5833 346° North 250 288 6,700 1,500 Climbing Toronto Center
Sun 05:31:00 PM 43.7106 -80.0932 277° West  Level FlightAware Approximate
Sun 05:31:39 PM 43.8000 -79.6833 270° West 270 311 7,000  Level Toronto Center
Sun 05:32:00 PM 43.7167 -80.2135 270° West  Level FlightAware Approximate
Sun 05:32:39 PM 43.8000 -79.8000 270° West 270 311 7,000  Level Toronto Center
Sun 05:33:00 PM 43.7273 -80.3334 277° West  Level FlightAware Approximate
Sun 05:33:39 PM 43.7833 -79.8833 255° West 270 311 9,700  Level Toronto Center
Sun 05:34:00 PM 43.7334 -80.4538 270° West  Level FlightAware Approximate
Sun 05:34:39 PM 43.7833 -80.0000 270° West 280 322 12,000  Level Toronto Center
Sun 05:35:39 PM 43.7667 -80.1333 260° West 330 380 13,900 2,200 Climbing Toronto Center
Sun 05:36:39 PM 43.7667 -80.2500 270° West 350 403 16,400 2,100 Climbing Toronto Center
Sun 05:37:39 PM 43.7500 -80.4000 261° West 360 414 18,100 1,950 Climbing Toronto Center
Sun 05:38:39 PM 43.7333 -80.5500 261° West 380 437 20,300 2,100 Climbing Toronto Center
Sun 05:39:39 PM 43.7167 -80.7000 261° West 380 437 22,300 1,850 Climbing Toronto Center
Sun 05:40:39 PM 43.6667 -80.8333 243° Southwest 390 449 24,000 1,650 Climbing Toronto Center
Sun 05:41:39 PM 43.6333 -81.0000 255° West 390 449 25,600 1,400 Climbing Toronto Center
Sun 05:42:39 PM 43.6000 -81.1333 251° West 400 460 26,800 1,250 Climbing Toronto Center
Sun 05:43:39 PM 43.5667 -81.2667 251° West 410 472 28,100 1,400 Climbing Toronto Center
Sun 05:44:39 PM 43.5333 -81.4333 255° West 410 472 29,600 1,400 Climbing Toronto Center
Sun 05:45:39 PM 43.5167 -81.5667 260° West 410 472 30,900 1,300 Climbing Toronto Center
Sun 05:46:39 PM 43.4833 -81.7167 253° West 410 472 32,200 1,300 Climbing Toronto Center
Sun 05:47:39 PM 43.4500 -81.8667 253° West 400 460 33,500 1,100 Climbing Toronto Center
Sun 05:48:39 PM 43.4000 -82.0167 245° Southwest 400 460 34,400 1,000 Climbing Toronto Center
Sun 05:49:39 PM 43.3667 -82.1500 251° West 410 472 35,500 800 Climbing Toronto Center
Sun 05:50:39 PM 43.3333 -82.3167 255° West 400 460 36,000 250 Climbing Toronto Center
Sun 05:51:39 PM 43.3000 -82.4500 251° West 400 460 36,000  Level Toronto Center
Sun 05:52:39 PM 43.2833 -82.6167 262° West 400 460 36,000  Level Toronto Center
Sun 05:53:04 PM 43.2689 -82.6617 246° West 406 467 36,000  Level Cleveland Center
Sun 05:54:04 PM 43.2286 -82.8028 249° West 401 461 36,000  Level Cleveland Center
Sun 05:55:04 PM 43.1906 -82.9467 250° West 406 467 36,000  Level Cleveland Center
Sun 05:56:04 PM 43.1497 -83.0931 249° West 406 467 36,000  Level Cleveland Center
Sun 05:57:04 PM 43.1092 -83.2336 248° West 406 467 36,000  Level Cleveland Center
Sun 05:58:04 PM 43.0725 -83.3742 250° West 406 467 36,000  Level Cleveland Center
Sun 05:59:04 PM 43.0317 -83.5114 248° West 406 467 36,000  Level Cleveland Center
Sun 06:00:04 PM 42.9947 -83.6489 250° West 400 460 36,000  Level Cleveland Center
Sun 06:01:04 PM 42.9617 -83.7892 252° West 400 460 36,000  Level Cleveland Center
Sun 06:02:04 PM 42.9469 -83.9389 262° West 395 455 36,000  Level Cleveland Center
Sun 06:03:04 PM 42.9322 -84.0856 262° West 395 455 36,000  Level Cleveland Center
Sun 06:04:04 PM 42.9172 -84.2322 262° West 395 455 36,000 -1,045 Level Cleveland Center
Sun 06:05:39 PM 42.8833 -84.4833 260° West 400 460 33,300 -1,737 Descending Toronto Center
Sun 06:05:58 PM 42.8894 -84.5289 280° West 392 451 32,700 -963 Descending Chicago Center
Sun 06:07:00 PM 42.8744 -84.6756 262° West 391 450 32,000 -339 Descending Chicago Center
Sun 06:08:02 PM 42.8594 -84.8242 262° West 396 456 32,000  Level Chicago Center
Sun 06:09:04 PM 42.8439 -84.9717 262° West 395 455 32,000  Level Chicago Center
Sun 06:10:06 PM 42.8267 -85.1203 261° West 395 455 32,000  Level Chicago Center
Sun 06:11:08 PM 42.8111 -85.2711 262° West 401 461 32,000 -532 Level Chicago Center
Sun 06:12:10 PM 42.7908 -85.4567 262° West 409 471 30,900 -1,016 Descending Chicago Center
Sun 06:13:12 PM 42.7656 -85.6119 258° West 416 479 29,900 -1,161 Descending Chicago Center
Sun 06:14:14 PM 42.7369 -85.7689 256° West 423 487 28,500 -1,790 Descending Chicago Center
Sun 06:15:16 PM 42.7094 -85.9231 256° West 419 482 26,200 -2,468 Descending Chicago Center
Sun 06:16:18 PM 42.6828 -86.0706 256° West 406 467 23,400 -2,516 Descending Chicago Center
Sun 06:17:20 PM 42.6569 -86.2136 256° West 392 451 21,000 -2,129 Descending Chicago Center
Sun 06:18:22 PM 42.6308 -86.3492 255° West 376 433 19,000 -1,500 Descending Chicago Center
Sun 06:19:24 PM 42.6047 -86.4831 255° West 367 422 17,900 -1,500 Descending Chicago Center
Sun 06:20:26 PM 42.5753 -86.6428 256° West 363 418 15,900 -1,707 Descending Chicago Center
Sun 06:21:27 PM 42.5494 -86.7700 255° West 352 405 14,400 -1,463 Descending Chicago Center
Sun 06:22:29 PM 42.5156 -86.8917 249° West 347 399 12,900 -1,452 Descending Chicago Center
Sun 06:23:31 PM 42.4831 -87.0111 250° West 339 390 11,400 -1,403 Descending Chicago Center
Sun 06:24:33 PM 42.4494 -87.1269 249° West 332 382 10,000 -871 Descending Chicago Center
Sun 06:25:35 PM 42.4225 -87.2314 251° West 298 343 9,600 -871 Descending Chicago Center
Sun 06:26:37 PM 42.3967 -87.3222 249° West 264 304 8,200 -1,258 Descending Chicago Center
Sun 06:27:39 PM 42.3681 -87.4297 250° West 255 293 7,000 -581 Descending Chicago Center
Sun 06:28:41 PM 42.3439 -87.5192 250° West 253 291 7,000  Level Chicago Center
Sun 06:29:43 PM 42.2950 -87.5703 218° Southwest 256 295 7,000 -435 Level Chicago Center
Sun 06:30:45 PM 42.2358 -87.6303 217° Southwest 221 254 6,100 -1,016 Descending Chicago Center
Sun 06:31:47 PM 42.1931 -87.6819 222° Southwest 211 243 4,900 -629 Descending Chicago Center
Sun 06:32:49 PM 42.1483 -87.7292 218° Southwest 206 237 4,800 -97 Descending Chicago Center

Login

Don't have an account? Register now (free) for customized features, flight alerts, and more!